Hartsfield Jackson Atlanta International Airport
KATL : now visible

Airfield :











YOU CAN JOIN US ON...

 
LOGIN :

Register | Disclaimer

   EN    FR    IT 

 









Legend :    VFR   Marginal VFR   IFR   Intensive IFR   Very Intensive IFR
Visi :
Ceiling :
>= 8 km
>= 3000ft
5 to 8 km
1000 to 3000 ft
1500m to 5 km
500 to 1000 ft
800 to 1500m
200 to 500 ft
< 800m
< 200 ft
Symbols :   Thunderstorms  Fog  Heavy snow  Heavy precipitations  Wind > 20 kt






- Airport Elevation : 1026 ft
- IATA code : ATL


KATL - Hartsfield Jackson Atlanta International

CURRENT METAR :
  • 042252Z 28012KT 9SM SCT007 BKN015 BKN040 OVC150 12/11 A2996 RMK AO2 RAE51DZB2155E01 SLP145 SCT007 V BKN P0002 T01220106

EXPIRED METARs :
  • 042152Z 27010KT 1 1/2SM -RA BR BKN005 OVC014 13/12 A2993 RMK AO2 SFC VIS 2 RAE01B37DZB01E37 SLP137 CIG 004V007 P0002 T01330122
  • 042137Z 25008G17KT 1 1/2SM R09R/6000VP6000FT -RA BR BKN006 OVC012 13/12 A2993 RMK AO2 RAE01B37DZB01E37 CIG 005V008 P0000 T01330117 $
  • 042125Z 24008KT 3SM -DZ BR BKN008 OVC015 13/12 A2992 RMK AO2 SFC VIS 4 RAE01DZB01 CIG 006V010 P0000 T01330117 $
  • 042052Z 28007KT 7SM -RA BKN007 OVC013 13/12 A2993 RMK AO2 SLP135 CIG 005V009 P0007 60008 T01330122 55021 $

TAF KATL
Valid from the 04 at 22:00 until the 06 at 00:00 UTC


042158Z 0422/0524 28008KT 2SM -DZ BR BKN008 OVC015
FM042300 29013G21KT 6SM -DZ BR BKN008 OVC012
FM050000 28016G25KT P6SM BKN015
FM050200 30015G23KT P6SM BKN035
FM050900 31009KT P6SM SCT200
FM051700 31006KT P6SM SKC
KZTL FIR / North America



MET'MAP, your aeronautical weather chart ! - Copyright ORBIFLY December 2007 - Disclaimer

ORBIFLY MET'MAP TEAM :

Programming & Development : Alexandra Zaïnal
Concept & original design : Baudouin d'Aumeries
Assistance for programming : Marc-Olivier Méhu
Technical & hardware support : Manuel Goepfert

Contact : metmap@orbifly.com




SOURCES & CREDITS :

   NOAA       Earth
Advisory